Time;durP1;ratioP1;P1;durP2;ratioP2;P2;SDS_P1;SDS_P2;PMS_P1;PMS_P2;Temp;Humidity;BMP_temperature;BMP_pressure;BME280_temperature;BME280_humidity;BME280_pressure;Samples;Min_cycle;Max_cycle;Signal;HPM_P1;HPM_P2
2021/11/26 00:00:22;;;;;;;13.00;12.10;;;8.10;99.90;;;;;;4154701;28;20112;-51
2021/11/26 00:02:27;;;;;;;11.85;11.10;;;8.10;99.90;;;;;;4160397;28;20070;-51
2021/11/26 00:04:30;;;;;;;14.57;13.55;;;8.10;99.90;;;;;;4154659;28;20036;-52
2021/11/26 00:06:32;;;;;;;14.45;13.50;;;8.00;99.90;;;;;;4160379;28;20046;-52
2021/11/26 00:08:34;;;;;;;38.95;24.80;;;8.00;99.90;;;;;;4159444;28;20041;-51
2021/11/26 00:10:36;;;;;;;32.75;26.80;;;8.00;99.90;;;;;;4162096;28;20770;-51
2021/11/26 00:12:40;;;;;;;35.78;27.02;;;8.10;99.90;;;;;;4161065;28;20049;-51
2021/11/26 00:15:12;;;;;;;21.10;18.83;;;8.00;99.90;;;;;;4160702;28;20046;-52
2021/11/26 00:17:05;;;;;;;20.10;18.10;;;8.00;99.90;;;;;;4156574;28;20065;-51
2021/11/26 00:19:08;;;;;;;98.68;27.08;;;8.00;99.90;;;;;;4156698;28;20304;-52
2021/11/26 00:21:11;;;;;;;299.23;39.60;;;8.10;99.90;;;;;;4158131;28;20042;-49
2021/11/26 00:23:14;;;;;;;667.45;65.18;;;8.00;99.90;;;;;;4161799;28;20041;-51
2021/11/26 00:25:16;;;;;;;454.20;48.92;;;8.00;99.90;;;;;;4160846;28;20068;-52
2021/11/26 00:27:18;;;;;;;340.17;40.63;;;7.90;99.90;;;;;;4162040;28;20423;-52
2021/11/26 00:29:20;;;;;;;173.93;32.72;;;7.90;99.90;;;;;;4159455;28;20470;-49
2021/11/26 00:31:22;;;;;;;27.08;24.17;;;7.90;99.90;;;;;;4162446;28;20080;-51
2021/11/26 00:33:25;;;;;;;77.75;28.42;;;7.90;99.90;;;;;;4159070;28;20087;-49
2021/11/26 00:35:27;;;;;;;;;;;7.90;99.90;;;;;;4149962;28;20096;-49
2021/11/26 00:37:29;;;;;;;167.35;28.38;;;7.90;99.90;;;;;;4153654;28;20377;-51
2021/11/26 00:39:31;;;;;;;142.55;26.92;;;7.90;99.90;;;;;;4162009;28;20610;-52
2021/11/26 00:41:34;;;;;;;46.83;23.52;;;7.90;99.90;;;;;;4160641;28;20077;-52
2021/11/26 00:43:35;;;;;;;;;;;7.90;99.90;;;;;;4161604;28;20072;-52
2021/11/26 00:45:37;;;;;;;27.05;22.13;;;7.90;99.90;;;;;;4157312;28;20000;-52
2021/11/26 00:47:40;;;;;;;25.73;22.35;;;7.90;99.90;;;;;;4159297;28;20088;-52
2021/11/26 00:49:42;;;;;;;30.95;23.60;;;7.90;99.90;;;;;;4158565;28;20124;-52
2021/11/26 00:51:44;;;;;;;33.45;24.15;;;7.90;99.90;;;;;;4161786;28;20076;-52
2021/11/26 00:53:47;;;;;;;22.48;20.52;;;7.90;99.90;;;;;;4159089;28;21600;-50
2021/11/26 00:55:49;;;;;;;40.05;23.52;;;7.90;99.90;;;;;;4162046;28;20060;-52
2021/11/26 00:57:51;;;;;;;227.50;31.48;;;7.90;99.90;;;;;;4158434;28;20068;-52
2021/11/26 00:59:53;;;;;;;87.07;27.58;;;7.90;99.90;;;;;;4160197;28;20049;-51
2021/11/26 01:01:55;;;;;;;247.93;35.53;;;7.90;99.90;;;;;;4157164;28;20441;-50
2021/11/26 01:03:57;;;;;;;330.25;37.95;;;7.90;99.90;;;;;;4160912;28;20037;-50
2021/11/26 01:05:59;;;;;;;223.82;36.92;;;7.80;99.90;;;;;;4158384;28;20048;-51
2021/11/26 01:08:01;;;;;;;247.57;35.45;;;7.90;99.90;;;;;;4156184;28;20049;-52
2021/11/26 01:10:13;;;;;;;103.45;29.38;;;7.80;99.90;;;;;;4154075;28;20124;-51
2021/11/26 01:12:15;;;;;;;42.13;26.15;;;7.80;99.90;;;;;;4159919;28;20076;-52
2021/11/26 01:14:17;;;;;;;45.17;28.05;;;7.80;99.90;;;;;;4156654;28;20034;-52
2021/11/26 01:16:20;;;;;;;26.92;23.88;;;7.90;99.90;;;;;;4162321;28;20080;-52
2021/11/26 01:18:23;;;;;;;22.98;20.60;;;7.90;99.90;;;;;;4158021;28;20037;-51
2021/11/26 01:20:27;;;;;;;28.17;22.85;;;7.90;99.90;;;;;;4161671;28;20397;-52
2021/11/26 01:22:30;;;;;;;42.25;25.85;;;7.90;99.90;;;;;;4158128;28;20513;-52
2021/11/26 01:24:32;;;;;;;26.63;23.70;;;7.90;99.90;;;;;;4160801;28;20045;-52
2021/11/26 01:26:34;;;;;;;26.58;21.52;;;7.90;99.90;;;;;;4159443;28;20155;-51
2021/11/26 01:28:36;;;;;;;25.80;23.17;;;7.80;99.90;;;;;;4149880;28;20042;-52
2021/11/26 01:30:45;;;;;;;24.95;22.48;;;7.90;99.90;;;;;;4159239;28;20124;-52
2021/11/26 01:32:47;;;;;;;27.67;24.75;;;7.90;99.90;;;;;;4161327;28;20049;-52
2021/11/26 01:34:49;;;;;;;;;;;7.90;99.90;;;;;;4159924;28;20073;-51
2021/11/26 01:36:51;;;;;;;37.58;26.85;;;7.90;99.90;;;;;;4160853;28;19932;-52
2021/11/26 01:38:54;;;;;;;34.42;25.80;;;7.90;99.90;;;;;;4157730;28;20038;-52
2021/11/26 01:40:56;;;;;;;;;;;7.90;99.90;;;;;;4159653;28;20120;-52
2021/11/26 01:42:59;;;;;;;124.20;42.40;;;7.90;99.90;;;;;;4158183;28;19964;-51
2021/11/26 01:45:01;;;;;;;;;;;7.90;99.90;;;;;;4162116;28;20561;-52
2021/11/26 01:47:03;;;;;;;79.50;31.20;;;7.90;99.90;;;;;;4157569;28;20004;-52
2021/11/26 01:49:05;;;;;;;128.00;33.35;;;7.80;99.90;;;;;;4149134;28;20072;-51
2021/11/26 01:51:09;;;;;;;131.75;34.50;;;7.80;99.90;;;;;;4158673;28;20141;-52
2021/11/26 01:53:12;;;;;;;35.67;25.73;;;7.80;99.90;;;;;;4161357;28;20057;-52
2021/11/26 01:55:16;;;;;;;33.67;26.33;;;7.80;99.90;;;;;;4159868;28;20501;-52
2021/11/26 01:57:19;;;;;;;38.03;24.75;;;7.80;99.90;;;;;;4159047;28;20042;-52
2021/11/26 01:59:21;;;;;;;65.15;24.73;;;7.80;99.90;;;;;;4158212;28;20124;-52
2021/11/26 02:01:24;;;;;;;44.67;26.05;;;7.80;99.90;;;;;;4160674;28;20045;-52
2021/11/26 02:03:26;;;;;;;35.63;24.75;;;7.80;99.90;;;;;;4157852;28;20050;-52
2021/11/26 02:05:28;;;;;;;242.13;30.27;;;7.80;99.90;;;;;;4158338;28;20089;-52
2021/11/26 02:07:30;;;;;;;272.05;29.52;;;7.80;99.90;;;;;;4159014;28;20041;-52
2021/11/26 02:09:33;;;;;;;284.20;30.00;;;7.80;99.90;;;;;;4161144;28;20064;-52
2021/11/26 02:11:35;;;;;;;;;;;7.80;99.90;;;;;;4161666;28;20048;-52
2021/11/26 02:13:37;;;;;;;222.52;24.45;;;7.80;99.90;;;;;;4162848;28;19921;-52
2021/11/26 02:15:41;;;;;;;466.30;35.83;;;7.80;99.90;;;;;;4163908;28;20058;-52
2021/11/26 02:17:43;;;;;;;448.58;38.13;;;7.70;99.90;;;;;;4156931;28;20049;-52
2021/11/26 02:19:45;;;;;;;393.55;36.80;;;7.70;99.90;;;;;;4157246;28;20057;-51
2021/11/26 02:21:48;;;;;;;362.55;49.45;;;7.70;99.90;;;;;;4156083;28;20080;-51
2021/11/26 02:23:50;;;;;;;235.27;36.90;;;7.70;99.90;;;;;;4163972;28;20045;-53
2021/11/26 02:25:52;;;;;;;215.15;40.10;;;7.60;99.90;;;;;;4163975;28;20103;-52
2021/11/26 02:27:57;;;;;;;491.50;39.15;;;7.70;99.90;;;;;;4162897;28;20469;-52
2021/11/26 02:29:59;;;;;;;479.42;41.28;;;7.70;99.90;;;;;;4160894;28;20125;-52
2021/11/26 02:32:01;;;;;;;578.05;33.92;;;7.60;99.90;;;;;;4163073;28;20744;-52
2021/11/26 02:34:04;;;;;;;561.30;54.38;;;7.50;99.90;;;;;;4160874;28;20409;-52
2021/11/26 02:36:06;;;;;;;518.95;42.55;;;7.50;99.90;;;;;;4161809;28;20040;-53
2021/11/26 02:38:11;;;;;;;432.65;33.42;;;7.50;99.90;;;;;;4154604;28;20061;-52
2021/11/26 02:40:15;;;;;;;430.70;30.77;;;7.50;99.90;;;;;;4159890;28;20689;-52
2021/11/26 02:42:26;;;;;;;374.00;30.85;;;7.50;99.90;;;;;;4160498;28;20509;-51
2021/11/26 02:44:28;;;;;;;338.73;31.00;;;7.50;99.90;;;;;;4162263;28;20072;-52
2021/11/26 02:46:30;;;;;;;329.88;32.40;;;7.50;99.90;;;;;;4160578;28;20044;-49
2021/11/26 02:48:32;;;;;;;313.33;29.05;;;7.50;99.90;;;;;;4162205;28;20045;-51
2021/11/26 02:50:35;;;;;;;329.63;31.20;;;7.50;99.90;;;;;;4161050;28;20055;-51
2021/11/26 02:52:39;;;;;;;334.90;33.25;;;7.50;99.90;;;;;;4162052;28;20685;-50
2021/11/26 02:54:41;;;;;;;357.45;26.48;;;7.50;99.90;;;;;;4160880;28;20069;-49
2021/11/26 02:56:43;;;;;;;247.93;28.73;;;7.50;99.90;;;;;;4162561;28;20047;-49
2021/11/26 02:58:45;;;;;;;167.93;23.52;;;7.50;99.90;;;;;;4161587;28;20132;-52
2021/11/26 03:00:58;;;;;;;22.05;16.17;;;7.40;99.90;;;;;;4151939;28;20129;-52
2021/11/26 03:03:00;;;;;;;;;;;7.50;99.90;;;;;;4160251;28;20041;-52
2021/11/26 03:05:03;;;;;;;18.67;14.75;;;7.40;99.90;;;;;;4162453;28;19925;-52
2021/11/26 03:07:07;;;;;;;106.45;19.30;;;7.40;99.90;;;;;;4160041;28;20041;-50
2021/11/26 03:09:09;;;;;;;49.15;17.25;;;7.40;99.90;;;;;;4158399;28;20080;-53
2021/11/26 03:11:11;;;;;;;216.77;23.02;;;7.30;99.90;;;;;;4160015;28;20052;-53
2021/11/26 03:13:13;;;;;;;237.77;25.67;;;7.30;99.90;;;;;;4163886;28;20049;-52
2021/11/26 03:15:17;;;;;;;203.73;22.02;;;7.30;99.90;;;;;;4161354;28;20061;-49
2021/11/26 03:17:20;;;;;;;465.65;31.23;;;7.30;99.90;;;;;;4162990;28;20129;-52
2021/11/26 03:19:22;;;;;;;145.93;20.23;;;7.30;99.90;;;;;;4158459;28;20064;-49
2021/11/26 03:21:25;;;;;;;92.35;16.77;;;7.20;99.90;;;;;;4163286;28;20120;-50
2021/11/26 03:23:27;;;;;;;301.58;23.98;;;7.30;99.90;;;;;;4160682;28;20034;-51
2021/11/26 03:25:29;;;;;;;227.32;19.63;;;7.30;99.90;;;;;;4163470;28;20370;-51
2021/11/26 03:27:32;;;;;;;126.38;15.90;;;7.30;99.90;;;;;;4161187;28;20061;-51
2021/11/26 03:29:34;;;;;;;98.65;18.23;;;7.30;99.90;;;;;;4163928;28;20045;-51
2021/11/26 03:31:37;;;;;;;273.10;24.77;;;7.30;99.90;;;;;;4159222;28;20111;-52
2021/11/26 03:33:39;;;;;;;176.27;19.85;;;7.30;99.90;;;;;;4161096;28;20107;-52
2021/11/26 03:35:41;;;;;;;188.13;17.52;;;7.30;99.90;;;;;;4160087;28;20112;-52
2021/11/26 03:37:44;;;;;;;203.77;20.90;;;7.30;99.90;;;;;;4162622;28;20065;-51
2021/11/26 03:39:46;;;;;;;228.20;18.67;;;7.30;99.90;;;;;;4159825;28;20072;-51
2021/11/26 03:41:48;;;;;;;260.52;19.42;;;7.20;99.90;;;;;;4156007;28;20607;-50
2021/11/26 03:43:51;;;;;;;301.15;23.00;;;7.20;99.90;;;;;;4159727;28;20037;-51
2021/11/26 03:45:53;;;;;;;351.95;29.73;;;7.20;99.90;;;;;;4162742;28;20045;-51
2021/11/26 03:47:56;;;;;;;322.10;24.77;;;7.20;99.90;;;;;;4157564;28;20038;-51
2021/11/26 03:49:58;;;;;;;284.45;22.27;;;7.20;99.90;;;;;;4151753;28;20076;-52
2021/11/26 03:52:00;;;;;;;246.18;22.25;;;7.10;99.90;;;;;;4158249;28;20036;-53
2021/11/26 03:54:02;;;;;;;294.50;26.05;;;7.10;99.90;;;;;;4161771;28;20044;-51
2021/11/26 03:56:05;;;;;;;312.00;26.00;;;7.10;99.90;;;;;;4161181;28;20068;-52
2021/11/26 03:58:07;;;;;;;332.45;28.30;;;7.10;99.90;;;;;;4154827;28;20042;-50
2021/11/26 04:00:10;;;;;;;346.08;26.67;;;7.10;99.90;;;;;;4158437;28;20065;-52
2021/11/26 04:02:12;;;;;;;421.95;24.15;;;7.10;99.90;;;;;;4159976;28;20532;-52
2021/11/26 04:04:15;;;;;;;569.97;33.83;;;7.00;99.90;;;;;;4160047;28;20034;-52
2021/11/26 04:06:17;;;;;;;421.23;31.98;;;7.00;99.90;;;;;;4162392;28;20767;-51
2021/11/26 04:08:19;;;;;;;505.88;34.55;;;7.00;99.90;;;;;;4156580;28;20536;-53
2021/11/26 04:10:21;;;;;;;367.63;28.27;;;7.00;99.90;;;;;;4154514;28;20088;-51
2021/11/26 04:12:23;;;;;;;396.17;26.35;;;7.00;99.90;;;;;;4158616;28;20100;-52
2021/11/26 04:14:26;;;;;;;298.73;24.52;;;7.00;99.90;;;;;;4161435;28;20458;-51
2021/11/26 04:16:28;;;;;;;415.00;26.90;;;7.00;99.90;;;;;;4160140;28;20069;-51
2021/11/26 04:18:33;;;;;;;;;;;7.00;99.90;;;;;;4149467;28;20069;-50
2021/11/26 04:20:36;;;;;;;650.85;42.42;;;7.00;99.90;;;;;;4155794;28;19925;-52
2021/11/26 04:22:38;;;;;;;642.15;41.22;;;7.00;99.90;;;;;;4151943;28;20072;-53
2021/11/26 04:24:41;;;;;;;149.50;18.20;;;7.00;99.90;;;;;;4160223;28;20132;-53
2021/11/26 04:26:43;;;;;;;16.67;14.70;;;7.10;99.90;;;;;;4159728;28;20124;-52
2021/11/26 04:28:45;;;;;;;14.30;12.82;;;7.10;99.90;;;;;;4161181;28;20087;-52
2021/11/26 04:30:47;;;;;;;294.58;25.25;;;7.10;99.90;;;;;;4159745;28;20041;-52
2021/11/26 04:32:50;;;;;;;245.63;20.58;;;7.20;99.90;;;;;;4155788;28;20053;-52
2021/11/26 04:34:53;;;;;;;66.05;16.25;;;7.20;99.90;;;;;;4148000;28;20041;-52
2021/11/26 04:36:56;;;;;;;167.63;19.00;;;7.20;99.90;;;;;;4153665;28;20480;-50
2021/11/26 04:38:58;;;;;;;31.88;15.40;;;7.20;99.90;;;;;;4151714;28;20044;-52
2021/11/26 04:41:00;;;;;;;16.55;13.68;;;7.20;99.90;;;;;;4153792;28;20521;-50
2021/11/26 04:43:02;;;;;;;19.65;14.48;;;7.20;99.90;;;;;;4158059;28;20084;-51
2021/11/26 04:45:05;;;;;;;14.00;12.52;;;7.20;99.90;;;;;;4158437;28;20472;-52
2021/11/26 04:47:07;;;;;;;14.95;12.75;;;7.20;99.90;;;;;;4151125;28;20122;-51
2021/11/26 04:49:09;;;;;;;13.43;12.38;;;7.20;99.90;;;;;;4161245;28;20057;-50
2021/11/26 04:51:12;;;;;;;13.10;11.73;;;7.10;99.90;;;;;;4160137;28;20475;-52
2021/11/26 04:53:14;;;;;;;16.17;13.20;;;7.10;99.90;;;;;;4161918;28;20041;-52
2021/11/26 04:55:17;;;;;;;12.90;11.90;;;7.20;99.90;;;;;;4159347;28;20062;-51
2021/11/26 04:57:18;;;;;;;;;;;7.20;99.90;;;;;;4161206;28;20033;-51
2021/11/26 04:59:20;;;;;;;11.93;10.85;;;7.20;99.90;;;;;;4159945;28;19928;-49
2021/11/26 05:01:23;;;;;;;13.18;12.05;;;7.10;99.90;;;;;;4160018;28;20067;-52
2021/11/26 05:03:25;;;;;;;13.38;12.02;;;7.10;99.90;;;;;;4155241;28;20045;-50
2021/11/26 05:05:27;;;;;;;12.30;11.18;;;7.10;99.90;;;;;;4160774;28;20136;-51
2021/11/26 05:07:29;;;;;;;12.35;11.45;;;7.10;99.90;;;;;;4158454;28;20041;-52
2021/11/26 05:09:31;;;;;;;13.13;11.82;;;7.10;99.90;;;;;;4160222;28;20115;-50
2021/11/26 05:11:34;;;;;;;14.38;12.93;;;7.10;99.90;;;;;;4161003;28;20479;-52
2021/11/26 05:13:43;;;;;;;;;;;7.00;99.90;;;;;;4158298;28;20041;-52
2021/11/26 05:15:45;;;;;;;14.85;13.45;;;7.10;99.90;;;;;;4158929;28;20392;-53
2021/11/26 05:17:47;;;;;;;15.15;13.70;;;7.10;99.90;;;;;;4161801;28;20037;-53
2021/11/26 05:19:49;;;;;;;16.40;14.07;;;7.10;99.90;;;;;;4158016;28;20042;-52
2021/11/26 05:21:51;;;;;;;14.90;13.23;;;7.00;99.90;;;;;;4161785;28;20049;-50
2021/11/26 05:23:54;;;;;;;14.07;11.93;;;7.10;99.90;;;;;;4157726;28;20050;-52
2021/11/26 05:25:56;;;;;;;12.30;11.30;;;7.10;99.90;;;;;;4161416;28;20124;-51
2021/11/26 05:27:58;;;;;;;11.80;10.73;;;7.10;99.90;;;;;;4159658;28;20076;-53
2021/11/26 05:30:00;;;;;;;11.10;10.45;;;7.10;99.90;;;;;;4159793;28;20042;-52
2021/11/26 05:32:03;;;;;;;11.65;10.85;;;7.10;99.90;;;;;;4157587;28;20512;-51
2021/11/26 05:34:06;;;;;;;11.85;11.10;;;7.00;99.90;;;;;;4160055;28;20037;-53
2021/11/26 05:36:08;;;;;;;10.73;10.00;;;7.00;99.90;;;;;;4157317;28;20064;-53
2021/11/26 05:38:11;;;;;;;13.45;12.35;;;7.00;99.90;;;;;;4152155;28;20482;-53
2021/11/26 05:40:14;;;;;;;11.48;10.70;;;7.00;99.90;;;;;;4155887;28;20065;-50
2021/11/26 05:42:16;;;;;;;13.25;12.13;;;7.00;99.90;;;;;;4168732;28;20037;-52
2021/11/26 05:44:19;;;;;;;14.07;12.68;;;7.00;99.90;;;;;;4159570;28;20042;-51
2021/11/26 05:46:21;;;;;;;13.15;12.13;;;7.10;99.90;;;;;;4163511;28;20199;-52
2021/11/26 05:48:23;;;;;;;12.90;11.77;;;7.10;99.90;;;;;;4160707;28;20033;-52
2021/11/26 05:50:27;;;;;;;12.77;11.80;;;7.00;99.90;;;;;;4164083;28;20144;-52
2021/11/26 05:52:29;;;;;;;13.10;11.88;;;7.00;99.90;;;;;;4162058;28;20033;-52
2021/11/26 05:54:31;;;;;;;14.75;12.40;;;7.00;99.90;;;;;;4151855;28;20406;-52
2021/11/26 05:56:33;;;;;;;13.63;12.63;;;7.00;99.90;;;;;;4162993;28;20045;-51
2021/11/26 05:58:35;;;;;;;13.32;11.98;;;7.00;99.90;;;;;;4164765;28;20045;-53
2021/11/26 06:00:37;;;;;;;11.13;10.20;;;7.00;99.90;;;;;;4160931;28;20100;-53
2021/11/26 06:02:40;;;;;;;11.80;10.77;;;7.00;99.90;;;;;;4165190;28;20484;-52
2021/11/26 06:04:43;;;;;;;11.07;10.38;;;7.00;99.90;;;;;;4160023;28;20068;-53
2021/11/26 06:06:45;;;;;;;11.85;11.00;;;7.00;99.90;;;;;;4156534;28;20393;-51
2021/11/26 06:08:47;;;;;;;12.02;11.00;;;7.00;99.90;;;;;;4160802;28;20045;-52
2021/11/26 06:10:49;;;;;;;12.80;11.50;;;7.00;99.90;;;;;;4164372;28;20069;-52
2021/11/26 06:12:52;;;;;;;14.80;13.35;;;7.00;99.90;;;;;;4162730;28;20048;-52
2021/11/26 06:14:55;;;;;;;16.70;13.45;;;7.10;99.90;;;;;;4159589;28;20073;-53
2021/11/26 06:16:57;;;;;;;13.32;12.10;;;7.10;99.90;;;;;;4160839;28;20450;-53
2021/11/26 06:18:59;;;;;;;13.60;12.35;;;7.10;99.90;;;;;;4163408;28;20091;-52
2021/11/26 06:21:01;;;;;;;18.00;13.23;;;7.10;99.90;;;;;;4161024;28;20049;-50
2021/11/26 06:23:03;;;;;;;19.60;14.77;;;7.10;99.90;;;;;;4165077;28;20128;-52
2021/11/26 06:25:05;;;;;;;15.30;13.80;;;7.10;99.90;;;;;;4160987;28;20489;-53
2021/11/26 06:27:07;;;;;;;;;;;7.10;99.90;;;;;;4164768;28;20408;-51
2021/11/26 06:29:09;;;;;;;20.00;13.95;;;7.10;99.90;;;;;;4161608;28;19925;-53
2021/11/26 06:31:12;;;;;;;23.23;18.95;;;7.10;99.90;;;;;;4163910;28;20671;-53
2021/11/26 06:33:14;;;;;;;28.35;17.67;;;7.00;99.90;;;;;;4161552;28;20124;-52
2021/11/26 06:35:20;;;;;;;32.17;17.95;;;7.10;99.90;;;;;;4163798;28;20080;-53
2021/11/26 06:37:22;;;;;;;37.00;19.38;;;7.10;99.90;;;;;;4161151;28;20041;-54
2021/11/26 06:39:24;;;;;;;28.67;18.08;;;7.10;99.90;;;;;;4161809;28;20044;-53
2021/11/26 06:41:26;;;;;;;30.00;19.23;;;7.10;99.90;;;;;;4160011;28;20579;-53
2021/11/26 06:43:28;;;;;;;31.80;17.70;;;7.10;99.90;;;;;;4162771;28;20038;-54
2021/11/26 06:45:30;;;;;;;41.58;19.92;;;7.10;99.90;;;;;;4159957;28;20493;-53
2021/11/26 06:47:33;;;;;;;27.38;18.73;;;7.10;99.90;;;;;;4164399;28;20052;-52
2021/11/26 06:49:35;;;;;;;28.60;17.50;;;7.10;99.90;;;;;;4162476;28;20103;-53
2021/11/26 06:51:37;;;;;;;32.33;18.50;;;7.20;99.90;;;;;;4162654;28;20045;-53
2021/11/26 06:53:39;;;;;;;33.20;18.13;;;7.20;99.90;;;;;;4158349;28;20086;-53
2021/11/26 06:55:41;;;;;;;38.08;20.52;;;7.20;99.90;;;;;;4161653;28;20041;-53
2021/11/26 06:57:43;;;;;;;32.30;20.65;;;7.20;99.90;;;;;;4161252;28;20128;-53
2021/11/26 06:59:45;;;;;;;33.38;20.10;;;7.20;99.90;;;;;;4161739;28;20781;-53
2021/11/26 07:01:47;;;;;;;35.55;21.77;;;7.20;99.90;;;;;;4162169;28;20124;-53
2021/11/26 07:03:49;;;;;;;38.50;22.17;;;7.20;99.90;;;;;;4162562;28;20050;-53
2021/11/26 07:05:54;;;;;;;35.40;21.38;;;7.20;99.90;;;;;;4161700;28;20049;-53
2021/11/26 07:07:56;;;;;;;48.28;23.73;;;7.20;99.90;;;;;;4163178;28;20033;-53
2021/11/26 07:09:58;;;;;;;36.80;21.35;;;7.30;99.90;;;;;;4162487;28;20076;-52
2021/11/26 07:12:00;;;;;;;27.85;18.05;;;7.30;99.90;;;;;;4163359;28;20069;-53
2021/11/26 07:14:14;;;;;;;39.15;22.48;;;7.30;99.90;;;;;;4162510;28;20072;-53
2021/11/26 07:16:18;;;;;;;24.23;19.23;;;7.30;99.90;;;;;;4159491;28;20049;-52
2021/11/26 07:18:20;;;;;;;25.60;17.98;;;7.30;99.90;;;;;;4161580;28;20045;-53
2021/11/26 07:20:23;;;;;;;27.48;19.67;;;7.30;99.90;;;;;;4161953;28;20030;-52
2021/11/26 07:22:29;;;;;;;35.45;19.65;;;7.30;99.90;;;;;;4163021;28;20042;-52
2021/11/26 07:24:31;;;;;;;33.72;21.30;;;7.40;99.90;;;;;;4161868;28;20037;-53
2021/11/26 07:26:33;;;;;;;;;;;7.40;99.90;;;;;;4162860;28;20084;-53
2021/11/26 07:28:36;;;;;;;23.00;17.52;;;7.40;99.90;;;;;;4161849;28;20016;-51
2021/11/26 07:30:39;;;;;;;21.30;17.63;;;7.40;99.90;;;;;;4162898;28;20055;-51
2021/11/26 07:32:42;;;;;;;21.88;19.25;;;7.40;99.90;;;;;;4161661;28;21321;-51
2021/11/26 07:34:44;;;;;;;18.50;16.75;;;7.50;99.90;;;;;;4161950;28;20041;-52
2021/11/26 07:36:46;;;;;;;18.83;16.83;;;7.50;99.90;;;;;;4161530;28;20052;-52
2021/11/26 07:38:48;;;;;;;25.08;17.52;;;7.40;99.90;;;;;;4162288;28;20571;-53
2021/11/26 07:40:52;;;;;;;21.60;18.42;;;7.50;99.90;;;;;;4160683;28;20455;-53
2021/11/26 07:42:54;;;;;;;18.35;16.50;;;7.40;99.90;;;;;;4163081;28;20505;-52
2021/11/26 07:44:56;;;;;;;19.95;17.83;;;7.50;99.90;;;;;;4160157;28;20410;-53
2021/11/26 07:46:59;;;;;;;19.25;16.98;;;7.50;99.90;;;;;;4162683;28;20065;-51
2021/11/26 07:49:01;;;;;;;17.15;15.70;;;7.60;99.90;;;;;;4161188;28;20156;-52
2021/11/26 07:51:03;;;;;;;15.98;14.68;;;7.50;99.90;;;;;;4162437;28;20067;-53
2021/11/26 07:53:05;;;;;;;11.40;10.80;;;7.50;99.90;;;;;;4160933;28;20458;-54
2021/11/26 07:55:08;;;;;;;11.30;10.68;;;7.50;99.90;;;;;;4162000;28;20388;-52
2021/11/26 07:57:11;;;;;;;8.70;8.40;;;7.50;99.90;;;;;;4159566;28;20049;-52
2021/11/26 07:59:13;;;;;;;10.13;9.70;;;7.50;99.90;;;;;;4162646;28;20034;-51
2021/11/26 08:01:15;;;;;;;11.52;10.40;;;7.50;99.90;;;;;;4159123;28;20042;-52
2021/11/26 08:03:20;;;;;;;11.45;10.68;;;7.50;99.90;;;;;;4162582;28;20531;-52
2021/11/26 08:05:37;;;;;;;10.63;10.10;;;7.60;99.90;;;;;;4158531;28;20061;-52
2021/11/26 08:07:39;;;;;;;11.25;10.63;;;7.60;99.90;;;;;;4163014;28;20080;-53
2021/11/26 08:09:41;;;;;;;11.23;10.57;;;7.60;99.90;;;;;;4157988;28;20559;-53
2021/11/26 08:11:46;;;;;;;10.75;10.15;;;7.60;99.90;;;;;;4144453;28;20053;-51
2021/11/26 08:13:48;;;;;;;11.20;10.60;;;7.60;99.90;;;;;;4157760;28;20029;-52
2021/11/26 08:15:50;;;;;;;10.32;9.77;;;7.60;99.90;;;;;;4161945;28;20069;-53
2021/11/26 08:17:52;;;;;;;11.50;10.90;;;7.60;99.90;;;;;;4157608;28;20080;-51
2021/11/26 08:19:54;;;;;;;12.05;11.45;;;7.60;99.90;;;;;;4162798;28;20125;-52
2021/11/26 08:22:17;;;;;;;10.32;9.45;;;7.60;99.90;;;;;;4159985;28;20048;-52
2021/11/26 08:24:20;;;;;;;11.20;10.30;;;7.60;99.90;;;;;;4160970;28;20557;-53
2021/11/26 08:26:22;;;;;;;11.98;9.93;;;7.60;99.90;;;;;;4160726;28;20116;-53
2021/11/26 08:28:25;;;;;;;12.27;11.48;;;7.60;99.90;;;;;;4161184;28;20042;-53
2021/11/26 08:30:27;;;;;;;10.40;9.90;;;7.60;99.90;;;;;;4160891;28;20037;-51
2021/11/26 08:32:30;;;;;;;14.32;12.98;;;7.60;99.90;;;;;;4160852;28;20049;-52
2021/11/26 08:34:32;;;;;;;13.45;12.40;;;7.60;99.90;;;;;;4160848;28;20080;-52
2021/11/26 08:36:34;;;;;;;15.32;13.90;;;7.50;99.90;;;;;;4160670;28;20614;-54
2021/11/26 08:38:36;;;;;;;19.60;16.10;;;7.50;99.90;;;;;;4160676;28;20080;-52
2021/11/26 08:40:38;;;;;;;20.25;17.25;;;7.50;99.90;;;;;;4157882;28;20065;-49
2021/11/26 08:42:40;;;;;;;16.15;14.55;;;7.50;99.90;;;;;;4160841;28;20065;-52
2021/11/26 08:44:42;;;;;;;19.35;17.30;;;7.60;99.90;;;;;;4161801;28;20064;-52
2021/11/26 08:46:45;;;;;;;20.27;18.10;;;7.50;99.90;;;;;;4160686;28;20088;-51
2021/11/26 08:48:47;;;;;;;19.88;17.33;;;7.50;99.90;;;;;;4160875;28;20892;-53
2021/11/26 08:50:49;;;;;;;18.00;16.33;;;7.50;99.90;;;;;;4160724;28;20530;-52
2021/11/26 08:52:51;;;;;;;;;;;7.50;99.90;;;;;;4160177;28;20473;-53
2021/11/26 08:54:53;;;;;;;17.85;16.15;;;7.60;99.90;;;;;;4161312;28;19921;-53
2021/11/26 08:56:56;;;;;;;18.73;16.73;;;7.60;99.90;;;;;;4157349;28;20053;-52
2021/11/26 08:59:00;;;;;;;17.25;15.70;;;7.60;99.90;;;;;;4161097;28;20075;-52
2021/11/26 09:01:03;;;;;;;17.90;16.23;;;7.50;99.90;;;;;;4158981;28;20037;-52
2021/11/26 09:03:06;;;;;;;18.75;16.83;;;7.60;99.90;;;;;;4161728;28;20523;-52
2021/11/26 09:05:08;;;;;;;18.52;16.60;;;7.60;99.90;;;;;;4161277;28;20061;-52
2021/11/26 09:07:10;;;;;;;18.23;16.33;;;7.60;99.90;;;;;;4160729;28;20080;-53
2021/11/26 09:09:12;;;;;;;18.38;16.27;;;7.60;99.90;;;;;;4159928;28;20076;-52
2021/11/26 09:11:16;;;;;;;17.50;15.63;;;7.60;99.90;;;;;;4160789;28;20108;-52
2021/11/26 09:13:18;;;;;;;14.40;13.30;;;7.50;99.90;;;;;;4158932;28;20049;-53
2021/11/26 09:15:20;;;;;;;14.13;12.90;;;7.50;99.90;;;;;;4159897;28;20033;-49
2021/11/26 09:17:23;;;;;;;14.73;13.43;;;7.50;99.90;;;;;;4150382;28;20117;-50
2021/11/26 09:19:24;;;;;;;;;;;7.50;99.90;;;;;;4161567;28;20120;-50
2021/11/26 09:21:27;;;;;;;15.38;14.05;;;7.50;99.90;;;;;;4158492;28;19964;-52
2021/11/26 09:23:29;;;;;;;15.35;13.75;;;7.50;99.90;;;;;;4161713;28;20040;-51
2021/11/26 09:25:32;;;;;;;14.13;13.07;;;7.60;99.90;;;;;;4159955;28;20117;-52
2021/11/26 09:27:34;;;;;;;13.68;11.48;;;7.60;99.90;;;;;;4160628;28;20041;-51
2021/11/26 09:29:44;;;;;;;13.77;12.57;;;7.60;99.90;;;;;;4158742;28;20052;-53
2021/11/26 09:31:46;;;;;;;13.88;12.77;;;7.60;99.90;;;;;;4161082;28;20100;-50
2021/11/26 09:33:51;;;;;;;13.18;12.23;;;7.70;99.90;;;;;;4160096;28;20033;-53
2021/11/26 09:35:53;;;;;;;12.57;11.68;;;7.60;99.90;;;;;;4160709;28;20048;-53
2021/11/26 09:37:58;;;;;;;12.27;11.48;;;7.60;99.90;;;;;;4157642;28;20072;-52
2021/11/26 09:40:01;;;;;;;13.35;12.02;;;7.60;99.90;;;;;;4158574;28;20076;-53
2021/11/26 09:42:03;;;;;;;14.68;13.52;;;7.60;99.90;;;;;;4153932;28;20147;-53
2021/11/26 09:44:07;;;;;;;11.02;10.25;;;7.70;99.90;;;;;;4161998;28;20045;-52
2021/11/26 09:46:09;;;;;;;12.57;11.40;;;7.60;99.90;;;;;;4159698;28;20045;-52
2021/11/26 09:48:12;;;;;;;11.75;10.77;;;7.60;99.90;;;;;;4161687;28;20481;-52
2021/11/26 09:50:14;;;;;;;13.73;12.73;;;7.60;99.90;;;;;;4159877;28;20037;-52
2021/11/26 09:52:18;;;;;;;11.05;10.48;;;7.60;99.90;;;;;;4161123;28;20088;-51
2021/11/26 09:54:21;;;;;;;12.52;11.80;;;7.70;99.90;;;;;;4158306;28;20420;-53
2021/11/26 09:56:23;;;;;;;;;;;7.70;99.90;;;;;;4162247;28;20084;-52
2021/11/26 09:58:28;;;;;;;9.60;9.10;;;7.70;99.90;;;;;;4158721;28;19935;-53
2021/11/26 10:00:30;;;;;;;11.02;10.48;;;7.70;99.90;;;;;;4160571;28;20065;-53
2021/11/26 10:02:33;;;;;;;11.35;10.50;;;7.80;99.90;;;;;;4159498;28;20037;-51
2021/11/26 10:04:35;;;;;;;13.60;12.55;;;7.70;99.90;;;;;;4161822;28;20103;-53
2021/11/26 10:06:37;;;;;;;12.82;11.73;;;7.70;99.90;;;;;;4157514;28;20157;-52
2021/11/26 10:08:41;;;;;;;;;;;7.70;99.90;;;;;;4162503;28;20084;-52
2021/11/26 10:10:43;;;;;;;9.15;8.75;;;7.70;99.90;;;;;;4158404;28;19921;-53
2021/11/26 10:12:56;;;;;;;9.73;9.32;;;7.70;99.90;;;;;;4145704;28;20077;-52
2021/11/26 10:14:58;;;;;;;9.70;9.30;;;7.70;99.90;;;;;;4159240;28;20108;-53
2021/11/26 10:17:14;;;;;;;10.23;9.70;;;7.70;99.90;;;;;;4161424;28;20041;-52
2021/11/26 10:19:17;;;;;;;10.98;10.18;;;7.70;99.90;;;;;;4158286;28;20048;-53
2021/11/26 10:21:24;;;;;;;8.23;7.93;;;7.70;99.90;;;;;;4159648;28;20069;-54
2021/11/26 10:23:31;;;;;;;8.07;7.78;;;7.70;99.90;;;;;;4160293;28;20148;-53
2021/11/26 10:25:33;;;;;;;9.93;9.35;;;7.60;99.90;;;;;;4161052;28;20120;-54
2021/11/26 10:28:06;;;;;;;7.85;7.30;;;7.70;99.90;;;;;;4156124;28;20072;-53
2021/11/26 10:30:19;;;;;;;7.90;7.80;;;7.70;99.90;;;;;;4153088;28;20454;-53
2021/11/26 10:32:23;;;;;;;9.48;9.05;;;7.70;99.90;;;;;;4162932;28;20132;-53
2021/11/26 10:34:26;;;;;;;9.38;8.80;;;7.70;99.90;;;;;;4162003;28;20038;-52